createdAt,value
2023-03-23T15:57:58.743Z,3.00
2023-03-23T16:00:12.352Z,4.50
2023-03-23T16:02:25.589Z,3.60
2023-03-23T16:04:38.352Z,5.50
2023-03-23T16:06:53.177Z,2.90
2023-03-23T16:09:06.861Z,3.20
2023-03-23T16:11:19.401Z,3.70
2023-03-23T16:13:31.938Z,3.80
2023-03-23T16:15:47.487Z,2.60
2023-03-23T16:18:00.351Z,4.90
2023-03-23T16:20:19.508Z,4.10
2023-03-23T16:22:32.045Z,4.40
2023-03-23T16:24:44.628Z,2.70
2023-03-23T16:26:57.253Z,5.50
2023-03-23T16:29:23.811Z,5.10
2023-03-23T16:31:45.422Z,6.40
2023-03-23T16:33:57.964Z,4.80
2023-03-23T16:36:12.691Z,4.60
2023-03-23T16:38:25.720Z,5.30
2023-03-23T16:40:38.385Z,4.70
2023-03-23T16:42:51.077Z,7.20
2023-03-23T16:45:03.983Z,6.70
2023-03-23T16:47:18.945Z,3.60
2023-03-23T16:49:31.430Z,8.30
2023-03-23T16:51:44.035Z,4.60
2023-03-23T16:53:56.680Z,3.10
2023-03-23T16:56:09.247Z,3.10
2023-03-23T16:58:21.862Z,3.20
2023-03-23T17:00:34.568Z,4.50
2023-03-23T17:02:49.175Z,2.70
2023-03-23T17:05:02.030Z,3.80
2023-03-23T17:07:14.889Z,3.40
2023-03-23T17:09:28.029Z,3.10
2023-03-23T17:11:40.807Z,4.30
2023-03-23T17:13:53.421Z,3.30
2023-03-23T17:16:06.914Z,4.70
2023-03-23T17:18:19.508Z,3.70
2023-03-23T17:20:32.126Z,4.20
2023-03-23T17:22:44.833Z,3.90
2023-03-23T17:24:57.981Z,3.90
2023-03-23T17:27:11.406Z,5.40
2023-03-23T17:29:23.999Z,3.80
2023-03-23T17:31:36.650Z,8.80
2023-03-23T17:33:51.630Z,11.90
2023-03-23T17:36:04.510Z,9.60
2023-03-23T17:38:17.985Z,11.90
2023-03-23T17:40:30.551Z,7.90
2023-03-23T17:42:43.132Z,8.80
2023-03-23T17:44:55.692Z,10.90
2023-03-23T17:47:08.278Z,11.20
2023-03-23T17:49:20.891Z,11.30
2023-03-23T17:51:33.368Z,14.50
2023-03-23T17:53:45.919Z,15.10
2023-03-23T17:55:58.755Z,15.10
2023-03-23T17:58:12.177Z,11.80
2023-03-23T18:00:25.043Z,12.70
2023-03-23T18:02:37.806Z,10.40
2023-03-23T18:04:50.420Z,11.40
2023-03-23T18:07:02.960Z,8.20
2023-03-23T18:09:15.588Z,10.30
2023-03-23T18:11:28.198Z,11.20
2023-03-23T18:13:40.975Z,11.20
2023-03-23T18:15:55.413Z,9.70
2023-03-23T18:18:08.070Z,8.20
2023-03-23T18:20:21.716Z,8.80
2023-03-23T18:22:34.511Z,8.20
2023-03-23T18:24:47.384Z,8.80
2023-03-23T18:27:00.232Z,7.50
2023-03-23T18:29:12.849Z,10.50
2023-03-23T18:31:25.581Z,7.30
2023-03-23T18:33:39.358Z,7.20
2023-03-23T18:35:58.559Z,8.80
2023-03-23T18:38:12.150Z,8.30
2023-03-23T18:40:25.133Z,11.60
2023-03-23T18:42:39.766Z,7.70
2023-03-23T18:44:54.815Z,7.10
2023-03-23T18:47:07.387Z,7.40
2023-03-23T18:49:20.007Z,8.10
2023-03-23T18:51:32.595Z,9.20
2023-03-23T18:53:45.201Z,9.10
2023-03-23T18:56:07.631Z,8.80
2023-03-23T18:58:21.062Z,9.10
2023-03-23T19:00:33.879Z,9.20
2023-03-23T19:02:47.155Z,7.10
2023-03-23T19:05:09.740Z,8.80
2023-03-23T19:07:22.471Z,6.90
2023-03-23T19:09:35.135Z,6.90
2023-03-23T19:11:47.839Z,7.80
2023-03-23T19:14:02.900Z,7.10
2023-03-23T19:16:16.153Z,6.60
2023-03-23T19:18:29.069Z,9.10
2023-03-23T19:21:09.292Z,7.90
2023-03-23T19:23:15.031Z,8.10
2023-03-23T19:25:27.726Z,8.00
2023-03-23T19:28:14.681Z,8.60
2023-03-23T19:30:13.140Z,6.10
2023-03-23T19:32:25.815Z,8.20
2023-03-23T19:34:39.473Z,7.40
2023-03-23T19:36:56.290Z,7.10
2023-03-23T19:39:15.650Z,5.70
2023-03-23T19:41:29.043Z,6.40
2023-03-23T19:43:43.162Z,9.30
2023-03-23T19:45:55.812Z,6.60
2023-03-23T19:48:10.113Z,7.50
2023-03-23T19:50:22.836Z,9.80
2023-03-23T19:52:35.667Z,9.60
2023-03-23T19:54:48.315Z,7.00
2023-03-23T19:57:01.177Z,8.00
2023-03-23T19:59:16.447Z,8.80
2023-03-23T20:01:29.308Z,8.80
2023-03-23T20:03:43.358Z,10.20
2023-03-23T20:06:05.640Z,9.60
2023-03-23T20:08:18.598Z,7.40
2023-03-23T20:10:34.560Z,8.80
2023-03-23T20:12:47.263Z,7.00
2023-03-23T20:14:59.796Z,8.10
2023-03-23T20:17:14.407Z,10.80
2023-03-23T20:19:28.625Z,9.50
2023-03-23T20:21:41.321Z,7.10
2023-03-23T20:23:57.081Z,12.40
2023-03-23T20:26:15.704Z,12.50
2023-03-23T20:28:28.547Z,13.50
2023-03-23T20:30:41.261Z,10.60
2023-03-23T20:32:58.066Z,12.80
2023-03-23T20:35:11.017Z,9.50
2023-03-23T20:37:24.011Z,10.80
2023-03-23T20:39:36.647Z,12.10
2023-03-23T20:41:51.268Z,12.30
2023-03-23T20:44:05.370Z,14.70
2023-03-23T20:46:18.222Z,15.30
2023-03-23T20:48:33.820Z,11.20
2023-03-23T20:50:47.179Z,10.90
2023-03-23T20:52:59.787Z,9.30
2023-03-23T20:55:12.513Z,11.90
2023-03-23T20:57:25.168Z,11.60
2023-03-23T20:59:37.748Z,10.50
2023-03-23T21:01:50.850Z,11.90
2023-03-23T21:04:03.597Z,10.80
2023-03-23T21:06:16.639Z,12.60
2023-03-23T21:08:30.510Z,11.60
2023-03-23T21:10:44.103Z,12.30
2023-03-23T21:12:57.188Z,12.20
2023-03-23T21:15:10.031Z,13.70
2023-03-23T21:17:22.692Z,42.50
2023-03-23T21:19:35.408Z,25.40
2023-03-23T21:21:56.428Z,26.30
2023-03-23T21:24:10.827Z,91.30
2023-03-23T21:26:27.321Z,87.10
2023-03-23T21:28:40.223Z,58.30
2023-03-23T21:30:54.701Z,39.30
2023-03-23T21:33:08.875Z,31.00
2023-03-23T21:35:21.797Z,19.90
2023-03-23T21:37:34.618Z,15.10
2023-03-23T21:39:47.276Z,19.60
2023-03-23T21:42:00.212Z,20.70
2023-03-23T21:44:13.414Z,22.70
2023-03-23T21:46:25.990Z,21.10
2023-03-23T21:48:38.685Z,22.30
2023-03-23T21:50:52.200Z,17.00
2023-03-23T21:53:05.700Z,19.50
2023-03-23T21:55:18.339Z,20.60
2023-03-23T21:57:31.927Z,16.00
2023-03-23T21:59:44.572Z,16.70
2023-03-23T22:01:58.256Z,20.50
2023-03-23T22:04:11.185Z,17.50
2023-03-23T22:06:26.812Z,14.30
2023-03-23T22:08:41.177Z,16.90
2023-03-23T22:11:01.848Z,13.60
2023-03-23T22:13:17.919Z,15.50
2023-03-23T22:15:30.490Z,14.70
2023-03-23T22:17:43.725Z,14.90
2023-03-23T22:19:56.302Z,14.90
2023-03-23T22:22:09.020Z,15.80
2023-03-23T22:24:21.835Z,12.40
2023-03-23T22:26:34.506Z,9.80
2023-03-23T22:28:49.380Z,10.50
2023-03-23T22:31:04.887Z,12.20
2023-03-23T22:33:17.794Z,11.40
2023-03-23T22:35:30.647Z,9.00
2023-03-23T22:37:43.214Z,11.20
2023-03-23T22:39:55.810Z,9.90
2023-03-23T22:42:08.387Z,18.40
2023-03-23T22:44:20.938Z,18.50
2023-03-23T22:46:33.486Z,14.70
2023-03-23T22:48:46.578Z,13.70
2023-03-23T22:50:59.968Z,14.10
2023-03-23T22:53:13.656Z,14.50
2023-03-23T22:55:27.094Z,14.10
2023-03-23T22:57:39.722Z,11.70
2023-03-23T22:59:52.256Z,13.20
2023-03-23T23:02:04.825Z,11.70
2023-03-23T23:04:17.608Z,11.70
2023-03-23T23:06:30.702Z,9.40
2023-03-23T23:08:44.078Z,9.10
2023-03-23T23:10:58.788Z,9.00
2023-03-23T23:13:12.965Z,8.70
2023-03-23T23:15:26.342Z,8.00
2023-03-23T23:17:38.994Z,8.80
2023-03-23T23:19:51.527Z,7.90
2023-03-23T23:22:18.025Z,7.50
2023-03-23T23:24:32.519Z,7.40
2023-03-23T23:26:45.063Z,5.80
2023-03-23T23:28:57.724Z,6.10
2023-03-23T23:31:25.916Z,6.70
2023-03-23T23:33:38.609Z,7.60
2023-03-23T23:35:51.825Z,6.80
2023-03-23T23:38:06.671Z,5.70
2023-03-23T23:40:20.254Z,7.00
2023-03-23T23:42:32.881Z,6.60
2023-03-23T23:44:46.438Z,6.00
2023-03-23T23:46:59.123Z,7.60
2023-03-23T23:49:11.646Z,7.50
2023-03-23T23:51:27.130Z,8.80
2023-03-23T23:53:42.489Z,8.20
2023-03-23T23:55:55.043Z,9.70
2023-03-23T23:58:07.708Z,9.30
